createdAt,value
2022-10-17T00:01:12.070Z,99.97
2022-10-17T00:03:41.025Z,99.95
2022-10-17T00:06:12.865Z,99.97
2022-10-17T00:08:43.423Z,99.96
2022-10-17T00:11:20.574Z,99.98
2022-10-17T00:13:50.502Z,100.00
2022-10-17T00:16:31.312Z,100.00
2022-10-17T00:19:00.839Z,100.00
2022-10-17T00:21:29.060Z,100.00
2022-10-17T00:23:57.327Z,100.00
2022-10-17T00:26:27.929Z,100.00
2022-10-17T00:28:56.563Z,100.00
2022-10-17T00:31:25.370Z,100.00
2022-10-17T00:33:54.003Z,100.00
2022-10-17T00:36:25.821Z,100.00
2022-10-17T00:38:58.480Z,99.99
2022-10-17T00:41:30.506Z,100.00
2022-10-17T00:43:58.771Z,100.00
2022-10-17T00:46:36.053Z,100.00
2022-10-17T00:49:10.400Z,100.00
2022-10-17T00:51:49.522Z,100.00
2022-10-17T00:54:21.282Z,100.00
2022-10-17T00:56:50.167Z,100.00
2022-10-17T00:59:22.044Z,100.00
2022-10-17T01:02:14.782Z,100.00
2022-10-17T01:04:46.743Z,100.00
2022-10-17T01:07:14.947Z,100.00
2022-10-17T01:09:47.407Z,100.00
2022-10-17T01:12:25.437Z,100.00
2022-10-17T01:15:11.635Z,100.00
2022-10-17T01:17:58.444Z,100.00
2022-10-17T01:20:41.627Z,100.00
2022-10-17T01:23:32.296Z,100.00
2022-10-17T01:26:36.090Z,100.00
2022-10-17T01:29:23.675Z,100.00
2022-10-17T01:32:03.631Z,100.00
2022-10-17T01:34:39.345Z,100.00
2022-10-17T01:37:54.070Z,100.00
2022-10-17T01:40:25.975Z,100.00
2022-10-17T01:43:05.630Z,100.00
2022-10-17T01:45:52.735Z,100.00
2022-10-17T01:48:26.975Z,100.00
2022-10-17T01:51:03.313Z,100.00
2022-10-17T01:53:40.826Z,100.00
2022-10-17T01:56:13.386Z,100.00
2022-10-17T01:58:48.590Z,100.00
2022-10-17T02:01:19.212Z,100.00
2022-10-17T02:03:51.232Z,100.00
2022-10-17T02:06:19.456Z,100.00
2022-10-17T02:08:50.049Z,100.00
2022-10-17T02:11:27.759Z,100.00
2022-10-17T02:14:02.264Z,100.00
2022-10-17T02:17:00.715Z,100.00
2022-10-17T02:19:32.610Z,100.00
2022-10-17T02:22:12.530Z,100.00
2022-10-17T02:24:52.993Z,100.00
2022-10-17T02:27:48.002Z,100.00
2022-10-17T02:30:42.386Z,100.00
2022-10-17T02:33:29.032Z,100.00
2022-10-17T02:36:03.294Z,100.00
2022-10-17T02:38:33.538Z,100.00
2022-10-17T02:41:04.284Z,100.00
2022-10-17T02:43:34.377Z,100.00
2022-10-17T02:46:02.757Z,100.00
2022-10-17T02:48:51.011Z,100.00
2022-10-17T02:51:22.289Z,100.00
2022-10-17T02:53:59.526Z,100.00
2022-10-17T02:56:31.309Z,100.00
2022-10-17T02:59:03.653Z,100.00
2022-10-17T03:01:32.070Z,100.00
2022-10-17T03:04:12.919Z,100.00
2022-10-17T03:06:41.838Z,100.00
2022-10-17T03:09:10.016Z,100.00
2022-10-17T03:11:38.485Z,100.00
2022-10-17T03:14:07.569Z,100.00
2022-10-17T03:16:35.755Z,100.00
2022-10-17T03:19:05.309Z,100.00
2022-10-17T03:21:36.662Z,100.00
2022-10-17T03:24:05.418Z,100.00
2022-10-17T03:26:33.686Z,100.00
2022-10-17T03:29:02.046Z,100.00
2022-10-17T03:31:30.589Z,100.00
2022-10-17T03:33:59.358Z,100.00
2022-10-17T03:36:27.565Z,100.00
2022-10-17T03:38:56.427Z,100.00
2022-10-17T03:41:24.704Z,100.00
2022-10-17T03:43:54.749Z,100.00
2022-10-17T03:46:23.033Z,100.00
2022-10-17T03:48:51.618Z,100.00
2022-10-17T03:51:19.987Z,100.00
2022-10-17T03:53:52.667Z,100.00
2022-10-17T03:56:24.147Z,100.00
2022-10-17T03:58:57.845Z,100.00
2022-10-17T04:01:26.233Z,100.00
2022-10-17T04:03:56.925Z,100.00
2022-10-17T04:06:27.188Z,100.00
2022-10-17T04:08:55.553Z,100.00
2022-10-17T04:11:33.226Z,100.00
2022-10-17T04:14:01.560Z,100.00
2022-10-17T04:16:30.374Z,100.00
2022-10-17T04:19:04.104Z,100.00
2022-10-17T04:21:37.267Z,100.00
2022-10-17T04:24:11.863Z,100.00
2022-10-17T04:26:46.193Z,100.00
2022-10-17T04:29:15.380Z,100.00
2022-10-17T04:31:44.564Z,100.00
2022-10-17T04:34:19.529Z,100.00
2022-10-17T04:36:48.259Z,100.00
2022-10-17T04:39:16.465Z,100.00
2022-10-17T04:41:44.958Z,100.00
2022-10-17T04:44:13.809Z,100.00
2022-10-17T04:46:45.432Z,100.00
2022-10-17T04:49:13.550Z,100.00
2022-10-17T04:51:43.380Z,100.00
2022-10-17T04:54:18.403Z,100.00
2022-10-17T04:56:49.214Z,100.00
2022-10-17T04:59:17.570Z,100.00
2022-10-17T05:01:45.858Z,100.00
2022-10-17T05:04:14.465Z,100.00
2022-10-17T05:06:42.704Z,100.00
2022-10-17T05:09:31.106Z,100.00
2022-10-17T05:11:59.563Z,100.00
2022-10-17T05:14:28.049Z,100.00
2022-10-17T05:16:56.357Z,100.00
2022-10-17T05:19:25.697Z,100.00
2022-10-17T05:21:53.846Z,100.00
2022-10-17T05:24:22.067Z,100.00
2022-10-17T05:26:52.331Z,100.00
2022-10-17T05:29:20.613Z,100.00
2022-10-17T05:31:53.313Z,100.00
2022-10-17T05:34:21.600Z,100.00
2022-10-17T05:36:50.016Z,100.00
2022-10-17T05:39:20.447Z,100.00
2022-10-17T05:41:51.535Z,100.00
2022-10-17T05:44:19.778Z,100.00
2022-10-17T05:46:52.734Z,100.00
2022-10-17T05:49:32.678Z,100.00
2022-10-17T05:52:09.307Z,100.00
2022-10-17T05:54:45.861Z,100.00
2022-10-17T05:57:14.435Z,100.00
2022-10-17T05:59:42.823Z,100.00
2022-10-17T06:02:14.933Z,100.00
2022-10-17T06:04:46.264Z,100.00
2022-10-17T06:07:16.983Z,100.00
2022-10-17T06:12:19.018Z,100.00
2022-10-17T06:14:48.043Z,100.00
2022-10-17T06:17:16.833Z,100.00
2022-10-17T06:19:45.866Z,100.00
2022-10-17T06:22:16.443Z,100.00
2022-10-17T06:24:46.469Z,100.00
2022-10-17T06:27:15.998Z,100.00
2022-10-17T06:29:44.251Z,99.94
2022-10-17T06:32:14.917Z,99.94
2022-10-17T06:34:47.129Z,99.65
2022-10-17T06:37:16.408Z,99.34
2022-10-17T06:39:45.392Z,99.03
2022-10-17T06:42:17.652Z,98.69
2022-10-17T06:45:05.879Z,98.43
2022-10-17T06:47:47.112Z,97.74
2022-10-17T06:50:29.515Z,97.39
2022-10-17T06:53:35.126Z,96.88
2022-10-17T06:56:29.348Z,96.39
2022-10-17T06:58:57.593Z,96.40
2022-10-17T07:01:36.772Z,95.72
2022-10-17T07:04:06.325Z,95.62
2022-10-17T07:06:35.631Z,95.50
2022-10-17T07:09:09.979Z,95.21
2022-10-17T07:11:39.020Z,94.48
2022-10-17T07:14:07.212Z,94.04
2022-10-17T07:16:36.546Z,93.56
2022-10-17T07:19:14.598Z,93.26
2022-10-17T07:21:42.817Z,93.04
2022-10-17T07:24:13.410Z,92.80
2022-10-17T07:26:44.557Z,91.98
2022-10-17T07:29:13.134Z,91.89
2022-10-17T07:31:49.070Z,91.92
2022-10-17T07:34:17.309Z,91.43
2022-10-17T07:36:46.339Z,90.64
2022-10-17T07:39:15.926Z,91.07
2022-10-17T07:41:44.251Z,91.37
2022-10-17T07:44:12.518Z,90.86
2022-10-17T07:46:45.586Z,90.70
2022-10-17T07:49:13.963Z,89.48
2022-10-17T07:51:42.724Z,89.20
2022-10-17T07:54:10.942Z,88.64
2022-10-17T07:56:39.195Z,88.37
2022-10-17T07:59:09.370Z,87.90
2022-10-17T08:01:38.216Z,87.75
2022-10-17T08:04:06.437Z,87.96
2022-10-17T08:06:34.696Z,87.50
2022-10-17T08:09:03.721Z,87.10
2022-10-17T08:11:31.962Z,86.90
2022-10-17T08:14:00.163Z,86.23
2022-10-17T08:16:28.389Z,85.74
2022-10-17T08:18:56.946Z,85.44
2022-10-17T08:21:25.150Z,85.18
2022-10-17T08:23:54.012Z,85.04
2022-10-17T08:26:22.477Z,84.70
2022-10-17T08:28:50.670Z,84.07
2022-10-17T08:31:20.789Z,83.79
2022-10-17T08:33:50.518Z,83.21
2022-10-17T08:36:20.942Z,82.28
2022-10-17T08:38:52.806Z,81.74
2022-10-17T08:41:27.279Z,80.92
2022-10-17T08:43:55.943Z,80.46
2022-10-17T08:46:31.870Z,79.74
2022-10-17T08:49:03.030Z,78.12
2022-10-17T08:51:37.087Z,77.84
2022-10-17T08:54:26.576Z,78.03
2022-10-17T08:56:55.720Z,77.96
2022-10-17T08:59:28.170Z,76.90
2022-10-17T09:01:56.330Z,77.28
2022-10-17T09:04:52.445Z,76.72
2022-10-17T09:07:43.061Z,76.18
2022-10-17T09:10:29.450Z,75.72
2022-10-17T09:13:27.493Z,75.85
2022-10-17T09:16:11.586Z,75.44
2022-10-17T09:19:11.131Z,74.11
2022-10-17T09:22:04.427Z,73.55
2022-10-17T09:25:05.398Z,73.78
2022-10-17T09:27:45.779Z,73.98
2022-10-17T09:30:40.112Z,73.15
2022-10-17T09:33:34.642Z,73.47
2022-10-17T09:36:10.906Z,73.35
2022-10-17T09:38:43.063Z,72.75
2022-10-17T09:41:43.609Z,72.14
2022-10-17T09:44:20.057Z,70.46
2022-10-17T09:47:24.309Z,70.88
2022-10-17T09:49:53.305Z,70.38
2022-10-17T09:52:33.773Z,69.15
2022-10-17T09:55:16.621Z,69.53
2022-10-17T09:57:57.369Z,70.04
2022-10-17T10:00:31.875Z,69.50
2022-10-17T10:03:15.396Z,68.91
2022-10-17T10:06:02.600Z,67.54
2022-10-17T10:08:35.102Z,67.50
2022-10-17T10:11:13.517Z,66.48
2022-10-17T10:13:50.707Z,67.56
2022-10-17T10:16:33.113Z,67.24
2022-10-17T10:19:02.816Z,67.65
2022-10-17T10:21:37.153Z,67.06
2022-10-17T10:24:09.819Z,66.40
2022-10-17T10:26:49.221Z,65.64
2022-10-17T10:29:40.239Z,65.87
2022-10-17T10:32:18.334Z,65.51
2022-10-17T10:34:52.854Z,65.00
2022-10-17T10:37:33.593Z,63.95
2022-10-17T10:40:08.241Z,63.28
2022-10-17T10:42:39.582Z,62.82
2022-10-17T10:45:42.744Z,62.63
2022-10-17T10:48:37.119Z,61.95
2022-10-17T10:51:09.005Z,60.26
2022-10-17T10:53:42.045Z,59.93
2022-10-17T10:56:19.286Z,60.63
2022-10-17T10:58:55.398Z,60.70
2022-10-17T11:01:53.343Z,59.46
2022-10-17T11:04:56.362Z,58.74
2022-10-17T11:07:33.265Z,57.72
2022-10-17T11:10:16.957Z,57.94
2022-10-17T11:13:29.138Z,58.35
2022-10-17T11:16:06.309Z,57.22
2022-10-17T11:18:52.645Z,57.15
2022-10-17T11:21:55.923Z,57.09
2022-10-17T11:24:30.020Z,58.24
2022-10-17T11:27:03.226Z,58.17
2022-10-17T11:29:38.865Z,57.30
2022-10-17T11:32:25.142Z,58.50
2022-10-17T11:35:01.666Z,58.01
2022-10-17T11:37:48.394Z,57.38
2022-10-17T11:40:31.649Z,57.38
2022-10-17T11:43:07.081Z,56.64
2022-10-17T11:45:41.546Z,56.84
2022-10-17T11:48:20.253Z,57.09
2022-10-17T11:54:03.212Z,57.46
2022-10-17T11:56:56.764Z,57.00
2022-10-17T11:59:34.154Z,55.19
2022-10-17T12:02:10.017Z,55.89
2022-10-17T12:04:49.237Z,56.71
2022-10-17T12:07:29.705Z,56.40
2022-10-17T12:10:22.458Z,55.39
2022-10-17T12:12:50.738Z,55.10
2022-10-17T12:15:24.729Z,54.00
2022-10-17T12:18:04.361Z,53.74
2022-10-17T12:20:40.186Z,54.48
2022-10-17T12:23:11.266Z,53.87
2022-10-17T12:25:58.276Z,53.51
2022-10-17T12:28:37.763Z,54.56
2022-10-17T12:31:12.345Z,55.06
2022-10-17T12:33:46.752Z,55.04
2022-10-17T12:36:17.680Z,55.19
2022-10-17T12:38:49.860Z,54.11
2022-10-17T12:41:40.369Z,54.29
2022-10-17T12:44:15.194Z,55.29
2022-10-17T12:46:57.079Z,55.66
2022-10-17T12:49:54.348Z,55.91
2022-10-17T12:52:47.955Z,54.82
2022-10-17T12:55:24.088Z,54.45
2022-10-17T12:58:03.140Z,54.89
2022-10-17T13:00:37.808Z,54.48
2022-10-17T13:03:17.928Z,54.33
2022-10-17T13:05:51.041Z,55.38
2022-10-17T13:08:40.205Z,55.11
2022-10-17T13:11:09.426Z,55.00
2022-10-17T13:13:53.811Z,55.04
2022-10-17T13:16:30.946Z,54.91
2022-10-17T13:19:01.413Z,54.86
2022-10-17T13:21:30.313Z,54.91
2022-10-17T13:23:58.448Z,55.34
2022-10-17T13:26:29.007Z,55.69
2022-10-17T13:29:14.254Z,55.56
2022-10-17T13:31:44.727Z,55.64
2022-10-17T13:34:20.440Z,56.12
2022-10-17T13:36:53.750Z,56.53
2022-10-17T13:39:44.951Z,56.99
2022-10-17T13:42:20.547Z,57.44
2022-10-17T13:44:49.158Z,57.70
2022-10-17T13:47:27.348Z,57.79
2022-10-17T13:49:58.133Z,58.01
2022-10-17T13:52:30.146Z,58.82
2022-10-17T13:55:17.786Z,59.13
2022-10-17T13:57:46.710Z,59.44
2022-10-17T14:00:23.040Z,59.77
2022-10-17T14:02:51.296Z,60.14
2022-10-17T14:05:23.659Z,60.37
2022-10-17T14:10:49.654Z,60.74
2022-10-17T14:13:30.545Z,60.85
2022-10-17T14:16:01.545Z,61.33
2022-10-17T14:18:36.938Z,61.78
2022-10-17T14:24:28.226Z,62.39
2022-10-17T14:26:59.894Z,62.85
2022-10-17T14:29:50.208Z,63.11
2022-10-17T14:32:20.116Z,63.66
2022-10-17T14:35:01.424Z,64.34
2022-10-17T14:37:48.919Z,64.69
2022-10-17T14:40:18.957Z,64.68
2022-10-17T14:42:48.614Z,64.82
2022-10-17T14:45:27.388Z,65.03
2022-10-17T14:48:02.523Z,65.49
2022-10-17T14:50:33.135Z,65.90
2022-10-17T14:53:21.678Z,66.23
2022-10-17T14:56:06.121Z,66.56
2022-10-17T14:58:34.338Z,67.17
2022-10-17T15:01:02.585Z,67.79
2022-10-17T15:03:31.473Z,68.17
2022-10-17T15:06:20.383Z,68.57
2022-10-17T15:08:48.675Z,69.11
2022-10-17T15:11:16.902Z,69.54
2022-10-17T15:13:45.797Z,69.85
2022-10-17T15:16:19.999Z,70.25
2022-10-17T15:18:48.949Z,70.68
2022-10-17T15:21:33.672Z,70.85
2022-10-17T15:24:06.841Z,71.37
2022-10-17T15:26:35.298Z,71.91
2022-10-17T15:29:04.509Z,72.28
2022-10-17T15:31:33.654Z,72.79
2022-10-17T15:34:01.834Z,73.40
2022-10-17T15:36:37.746Z,73.89
2022-10-17T15:39:06.443Z,74.26
2022-10-17T15:41:34.741Z,74.26
2022-10-17T15:44:03.056Z,74.73
2022-10-17T15:46:34.732Z,75.08
2022-10-17T15:49:08.506Z,75.52
2022-10-17T15:51:36.810Z,75.87
2022-10-17T15:54:06.566Z,76.28
2022-10-17T15:56:43.430Z,76.76
2022-10-17T15:59:15.515Z,77.31
2022-10-17T16:01:44.569Z,77.80
2022-10-17T16:04:15.700Z,78.37
2022-10-17T16:06:43.935Z,78.75
2022-10-17T16:09:12.166Z,79.38
2022-10-17T16:11:43.396Z,79.79
2022-10-17T16:14:14.833Z,80.27
2022-10-17T16:16:43.303Z,80.72
2022-10-17T16:19:12.683Z,81.26
2022-10-17T16:21:42.323Z,81.65
2022-10-17T16:24:12.329Z,82.15
2022-10-17T16:26:40.751Z,82.67
2022-10-17T16:29:10.352Z,83.02
2022-10-17T16:31:42.902Z,83.76
2022-10-17T16:34:15.637Z,84.32
2022-10-17T16:36:43.882Z,84.46
2022-10-17T16:39:14.699Z,84.43
2022-10-17T16:41:42.869Z,84.74
2022-10-17T16:44:16.687Z,84.92
2022-10-17T16:46:45.065Z,85.24
2022-10-17T16:49:16.311Z,85.52
2022-10-17T16:51:44.634Z,85.55
2022-10-17T16:54:12.817Z,85.59
2022-10-17T16:56:42.366Z,86.00
2022-10-17T16:59:12.678Z,86.09
2022-10-17T17:01:41.884Z,86.43
2022-10-17T17:04:10.077Z,87.02
2022-10-17T17:06:38.281Z,87.51
2022-10-17T17:09:06.649Z,87.98
2022-10-17T17:11:36.214Z,88.34
2022-10-17T17:14:05.810Z,89.04
2022-10-17T17:16:35.202Z,89.58
2022-10-17T17:19:06.739Z,89.67
2022-10-17T17:21:35.805Z,89.64
2022-10-17T17:24:05.207Z,89.74
2022-10-17T17:26:37.969Z,90.37
2022-10-17T17:29:06.275Z,90.50
2022-10-17T17:31:35.955Z,90.63
2022-10-17T17:34:04.189Z,91.06
2022-10-17T17:36:36.674Z,92.46
2022-10-17T17:39:08.369Z,94.22
2022-10-17T17:41:36.569Z,95.97
2022-10-17T17:44:05.616Z,97.22
2022-10-17T17:46:33.802Z,97.57
2022-10-17T17:49:02.047Z,97.58
2022-10-17T17:51:30.290Z,96.95
2022-10-17T17:53:58.541Z,96.25
2022-10-17T17:56:30.295Z,95.68
2022-10-17T17:59:00.948Z,95.17
2022-10-17T18:01:32.337Z,94.69
2022-10-17T18:04:00.657Z,94.13
2022-10-17T18:06:29.219Z,93.42
2022-10-17T18:08:59.295Z,92.93
2022-10-17T18:11:28.541Z,92.39
2022-10-17T18:14:02.926Z,92.13
2022-10-17T18:16:33.146Z,91.85
2022-10-17T18:19:06.756Z,91.57
2022-10-17T18:21:36.200Z,91.46
2022-10-17T18:24:05.107Z,91.26
2022-10-17T18:26:34.646Z,90.86
2022-10-17T18:29:03.920Z,90.61
2022-10-17T18:31:37.915Z,90.27
2022-10-17T18:34:06.284Z,89.89
2022-10-17T18:36:37.377Z,89.76
2022-10-17T18:39:06.204Z,89.75
2022-10-17T18:41:34.921Z,89.58
2022-10-17T18:44:03.175Z,89.29
2022-10-17T18:46:41.928Z,89.13
2022-10-17T18:49:12.713Z,89.12
2022-10-17T18:51:42.569Z,89.03
2022-10-17T18:54:20.644Z,88.97
2022-10-17T18:56:54.781Z,88.88
2022-10-17T18:59:23.114Z,88.98
2022-10-17T19:01:51.505Z,88.86
2022-10-17T19:04:19.897Z,88.74
2022-10-17T19:06:48.346Z,88.72
2022-10-17T19:09:17.037Z,88.27
2022-10-17T19:11:45.222Z,88.16
2022-10-17T19:14:14.060Z,88.13
2022-10-17T19:16:46.364Z,88.13
2022-10-17T19:19:25.567Z,88.13
2022-10-17T19:21:54.014Z,88.01
2022-10-17T19:24:25.633Z,87.98
2022-10-17T19:26:56.330Z,87.83
2022-10-17T19:29:28.539Z,87.79
2022-10-17T19:31:56.937Z,88.02
2022-10-17T19:34:25.227Z,88.04
2022-10-17T19:36:56.101Z,88.21
2022-10-17T19:39:25.414Z,88.16
2022-10-17T19:41:54.153Z,87.96
2022-10-17T19:44:25.577Z,88.07
2022-10-17T19:46:54.642Z,87.74
2022-10-17T19:49:22.867Z,87.74
2022-10-17T19:51:51.022Z,87.55
2022-10-17T19:54:20.613Z,87.23
2022-10-17T19:56:48.819Z,86.98
2022-10-17T19:59:18.116Z,86.83
2022-10-17T20:01:46.574Z,86.61
2022-10-17T20:04:14.909Z,86.47
2022-10-17T20:06:43.099Z,86.64
2022-10-17T20:09:15.767Z,86.82
2022-10-17T20:11:46.271Z,87.25
2022-10-17T20:14:14.573Z,87.80
2022-10-17T20:16:44.954Z,88.48
2022-10-17T20:19:13.839Z,89.35
2022-10-17T20:21:43.665Z,90.03
2022-10-17T20:24:15.472Z,90.18
2022-10-17T20:26:45.254Z,90.40
2022-10-17T20:29:17.266Z,90.62
2022-10-17T20:31:46.662Z,90.34
2022-10-17T20:34:16.996Z,89.97
2022-10-17T20:36:45.817Z,89.89
2022-10-17T20:39:15.844Z,89.70
2022-10-17T20:41:45.431Z,89.41
2022-10-17T20:44:14.582Z,89.26
2022-10-17T20:47:00.591Z,89.18
2022-10-17T20:49:32.343Z,89.10
2022-10-17T20:52:01.423Z,88.99
2022-10-17T20:54:29.770Z,88.86
2022-10-17T20:57:01.072Z,88.86
2022-10-17T20:59:35.123Z,88.70
2022-10-17T21:02:05.466Z,88.64
2022-10-17T21:04:45.928Z,88.64
2022-10-17T21:07:15.748Z,88.61
2022-10-17T21:09:45.686Z,88.42
2022-10-17T21:12:21.643Z,88.53
2022-10-17T21:15:00.843Z,88.60
2022-10-17T21:17:29.040Z,88.57
2022-10-17T21:19:57.273Z,88.62
2022-10-17T21:22:30.805Z,88.50
2022-10-17T21:25:00.360Z,88.71
2022-10-17T21:27:28.708Z,88.77
2022-10-17T21:29:57.016Z,88.90
2022-10-17T21:32:40.045Z,88.80
2022-10-17T21:35:13.524Z,88.59
2022-10-17T21:37:41.785Z,88.22
2022-10-17T21:40:10.522Z,88.51
2022-10-17T21:42:38.771Z,88.39
2022-10-17T21:45:14.997Z,88.22
2022-10-17T21:47:55.001Z,88.39
2022-10-17T21:50:29.457Z,88.22
2022-10-17T21:52:58.650Z,88.09
2022-10-17T21:55:26.790Z,87.88
2022-10-17T21:57:54.915Z,87.97
2022-10-17T22:00:23.230Z,88.11
2022-10-17T22:02:51.408Z,88.23
2022-10-17T22:05:19.676Z,88.32
2022-10-17T22:07:48.055Z,88.34
2022-10-17T22:10:16.198Z,88.57
2022-10-17T22:12:44.400Z,88.83
2022-10-17T22:17:45.696Z,89.09
2022-10-17T22:20:14.215Z,89.25
2022-10-17T22:22:42.344Z,89.13
2022-10-17T22:25:10.491Z,88.98
2022-10-17T22:27:38.786Z,88.89
2022-10-17T22:30:07.537Z,89.03
2022-10-17T22:32:35.657Z,88.91
2022-10-17T22:35:04.106Z,88.63
2022-10-17T22:37:32.536Z,88.50
2022-10-17T22:40:01.078Z,88.43
2022-10-17T22:42:31.820Z,88.69
2022-10-17T22:45:03.002Z,88.57
2022-10-17T22:47:31.967Z,88.43
2022-10-17T22:50:00.429Z,88.54
2022-10-17T22:52:28.801Z,88.55
2022-10-17T22:54:57.490Z,88.76
2022-10-17T22:57:25.610Z,88.74
2022-10-17T22:59:53.745Z,88.82
2022-10-17T23:02:21.906Z,89.06
2022-10-17T23:04:50.064Z,89.24
2022-10-17T23:07:18.309Z,89.03
2022-10-17T23:09:46.561Z,89.17
2022-10-17T23:12:14.706Z,88.93
2022-10-17T23:14:43.684Z,88.78
2022-10-17T23:17:13.142Z,89.00
2022-10-17T23:19:41.259Z,88.94
2022-10-17T23:22:10.090Z,88.87
2022-10-17T23:24:38.407Z,88.76
2022-10-17T23:27:06.536Z,88.75
2022-10-17T23:29:35.353Z,89.04
2022-10-17T23:32:03.634Z,88.89
2022-10-17T23:34:31.854Z,88.91
2022-10-17T23:37:00.046Z,89.32
2022-10-17T23:39:28.225Z,89.12
2022-10-17T23:41:56.326Z,89.26
2022-10-17T23:44:24.578Z,88.99
2022-10-17T23:46:52.809Z,88.79
2022-10-17T23:49:20.970Z,88.81
2022-10-17T23:51:49.239Z,88.96
2022-10-17T23:54:17.647Z,88.82
2022-10-17T23:56:45.896Z,88.70
2022-10-17T23:59:14.043Z,89.10
